Ursula — WDF2405 — position and weather

sailwx.info

Track history (hours):
 
Tides and Currents Weather Stations Pressure Air Temp Water Temp Dewpoint Dewpoint Depression Visibility Wind Speed Wind Dir Waves Ship Positions

Ursula

Owner: Enterprise Marine Services, LLC, San Antonio, TX. More information available from US FCC via Universal Licensing System and Coast Guard Vessel Documentation Center.

Last reported at 2018-Feb-23 04:53 UTC. Time now 2018-Feb-23 20:20 UTC.
Position N 29°22' W 094°54'.

Length 22 m; draft 2.7 m.

Type: Tug. MMSI: 367004050.

Date/timePositionNaut miles runAvg speedWind from/ knotsBaromVisibWave heightAir tempDewpointWater temp
2018-Feb-23 04:53N 29°22' W 094°54'  
2018-Feb-20 22:36N 29°32' W 094°29'0 0.0
2018-Feb-20 21:42N 29°32' W 094°29'5 1.0
2018-Feb-20 16:30N 29°36' W 094°24'3 6.0
2018-Feb-20 16:00N 29°37' W 094°21'0 0.4
2018-Feb-20 15:30N 29°37' W 094°21'0 0.0
2018-Feb-20 14:57N 29°37' W 094°21'0 0.0
2018-Feb-20 14:29N 29°37' W 094°21'0 0.0
2018-Feb-20 14:00N 29°37' W 094°21'0 0.0
2018-Feb-20 13:30N 29°37' W 094°21'0 0.0
2018-Feb-20 13:00N 29°37' W 094°21'0 0.0
2018-Feb-20 12:30N 29°37' W 094°21'0 0.0
2018-Feb-20 12:00N 29°37' W 094°21'0 0.0
2018-Feb-20 11:30N 29°37' W 094°21'0 0.0
2018-Feb-20 11:00N 29°37' W 094°21'0 0.0
2018-Feb-20 10:27N 29°37' W 094°21'0 0.0
2018-Feb-20 10:00N 29°37' W 094°21'0 0.0
2018-Feb-20 09:29N 29°37' W 094°21'0 0.0
2018-Feb-20 09:00N 29°37' W 094°21'0 0.0
2018-Feb-20 08:30N 29°37' W 094°21'0 0.0
2018-Feb-20 08:00N 29°37' W 094°21'0 0.0
2018-Feb-20 07:24N 29°37' W 094°21'0 0.0
2018-Feb-20 06:53N 29°37' W 094°21'0 0.0
2018-Feb-20 06:30N 29°37' W 094°21'0 0.0
2018-Feb-20 05:58N 29°37' W 094°21'0 0.0
2018-Feb-20 05:30N 29°37' W 094°21'0 0.0
2018-Feb-20 05:00N 29°37' W 094°21'0 0.0
2018-Feb-20 04:25N 29°37' W 094°21'0 0.0
2018-Feb-20 03:58N 29°37' W 094°21'0 0.0
2018-Feb-20 03:30N 29°37' W 094°21'0 0.0
2018-Feb-20 03:00N 29°37' W 094°21'1 1.2
2018-Feb-20 02:28N 29°37' W 094°20'0 0.2
2018-Feb-20 02:00N 29°37' W 094°20'0 0.0
2018-Feb-20 01:30N 29°37' W 094°20'1 2.5
2018-Feb-20 01:00N 29°38' W 094°19'0 0.2
2018-Feb-20 00:30N 29°38' W 094°19'2 3.9
2018-Feb-20 00:00N 29°39' W 094°17'4 7.2
2018-Feb-19 23:30N 29°40' W 094°13'2 4.3
2018-Feb-19 23:00N 29°41' W 094°11'0 0.4
2018-Feb-19 22:30N 29°41' W 094°10'3 6.1
2018-Feb-19 22:00N 29°43' W 094°07'0 0.0
2018-Feb-19 21:30N 29°43' W 094°07'0 0.0
2018-Feb-19 21:00N 29°43' W 094°07'0 0.0
2018-Feb-19 20:29N 29°43' W 094°07'2 3.1
2018-Feb-19 20:00N 29°44' W 094°06'3 6.3
2018-Feb-19 19:30N 29°46' W 094°03'1 2.8
2018-Feb-19 19:00N 29°47' W 094°02'0 0.0
2018-Feb-19 18:30N 29°47' W 094°02'1 2.5
2018-Feb-19 18:00N 29°47' W 094°01'0 0.1
2018-Feb-19 17:30N 29°47' W 094°01'2 3.8
2018-Feb-19 17:00N 29°49' W 093°59'3 5.1
2018-Feb-19 16:30N 29°51' W 093°57'4 7.1
2018-Feb-19 16:00N 29°53' W 093°55'4 7.6
2018-Feb-19 15:30N 29°56' W 093°52'3 5.2
2018-Feb-19 15:00N 29°59' W 093°53'3 6.7
2018-Feb-19 14:30N 29°60' W 093°56'2 4.2
2018-Feb-19 14:00N 30°01' W 093°59'0 0.1
2018-Feb-19 13:30N 30°01' W 093°59'0 0.0
2018-Feb-19 13:00N 30°01' W 093°59'0 0.0
2018-Feb-19 12:26N 30°01' W 093°59'0 0.0
2018-Feb-19 11:59N 30°01' W 093°59'0 0.0
2018-Feb-19 11:29N 30°01' W 093°59'0 0.0
2018-Feb-19 10:59N 30°01' W 093°59'0 0.0
2018-Feb-19 10:29N 30°01' W 093°59'0 0.0
2018-Feb-19 09:59N 30°01' W 093°59'0 0.0
2018-Feb-19 09:26N 30°01' W 093°59'0 0.0
2018-Feb-19 08:53N 30°01' W 093°59'0 0.0
2018-Feb-19 08:23N 30°01' W 093°59'0 0.0
2018-Feb-19 07:59N 30°01' W 093°59'0 0.0
2018-Feb-19 07:23N 30°01' W 093°59'0 0.0
2018-Feb-19 06:59N 30°01' W 093°59'0 0.0
2018-Feb-19 06:26N 30°01' W 093°59'0 0.0
2018-Feb-19 05:59N 30°01' W 093°59'0 0.0
2018-Feb-19 05:29N 30°01' W 093°59'0 0.0
2018-Feb-19 04:59N 30°01' W 093°59'0 0.0
2018-Feb-19 04:29N 30°01' W 093°59'0 0.0
2018-Feb-19 03:53N 30°01' W 093°59'0 0.0
2018-Feb-19 03:29N 30°01' W 093°59'0 0.0
2018-Feb-19 02:59N 30°01' W 093°59'0 0.0
2018-Feb-19 02:29N 30°01' W 093°59'0 0.0
2018-Feb-19 01:56N 30°01' W 093°59'0 0.0
2018-Feb-19 01:29N 30°01' W 093°59'0 0.0
2018-Feb-19 00:59N 30°01' W 093°59'0 0.0
2018-Feb-19 00:29N 30°01' W 093°59'0 0.0
2018-Feb-18 23:59N 30°01' W 093°59'0 0.1
2018-Feb-18 23:30N 30°01' W 093°58'1 1.5
2018-Feb-18 23:00N 30°01' W 093°59'2 4.4
2018-Feb-18 22:30N 30°01' W 094°02'1 2.2
2018-Feb-18 22:00N 30°02' W 094°02'0 0.1
2018-Feb-18 21:29N 30°02' W 094°02'0 0.0
2018-Feb-18 20:59N 30°02' W 094°02'0 0.0
2018-Feb-18 20:26N 30°02' W 094°02'0 0.0
2018-Feb-18 19:59N 30°02' W 094°02'0 0.0
2018-Feb-18 19:29N 30°02' W 094°02'0 0.0
2018-Feb-18 18:59N 30°02' W 094°02'0 0.0
2018-Feb-18 18:29N 30°02' W 094°02'0 0.0
2018-Feb-18 17:59N 30°02' W 094°02'0 0.0
2018-Feb-18 17:29N 30°02' W 094°02'0 0.0
2018-Feb-18 16:59N 30°02' W 094°02'0 0.0
2018-Feb-18 16:29N 30°02' W 094°02'0 0.0
2018-Feb-18 15:59N 30°02' W 094°02'0 0.0
2018-Feb-18 15:29N 30°02' W 094°02'0 0.0
2018-Feb-18 14:59N 30°02' W 094°02'0 0.0
2018-Feb-18 14:29N 30°02' W 094°02'0 0.0
2018-Feb-18 13:59N 30°02' W 094°02'0 0.0
2018-Feb-18 13:29N 30°02' W 094°02'0 0.0
2018-Feb-18 12:59N 30°02' W 094°02'0 0.0
2018-Feb-18 12:29N 30°02' W 094°02'0 0.0
2018-Feb-18 11:59N 30°02' W 094°02'0 0.0
2018-Feb-18 11:29N 30°02' W 094°02'0 0.0
2018-Feb-18 10:59N 30°02' W 094°02'0 0.0
2018-Feb-18 10:29N 30°02' W 094°02'0 0.0
2018-Feb-18 09:59N 30°02' W 094°02'0 0.0
2018-Feb-18 09:29N 30°02' W 094°02'0 0.0
2018-Feb-18 08:59N 30°02' W 094°02'0 0.0
2018-Feb-18 08:29N 30°02' W 094°02'0 0.0
2018-Feb-18 07:59N 30°02' W 094°02'0 0.0
2018-Feb-18 07:29N 30°02' W 094°02'0 0.0
2018-Feb-18 06:59N 30°02' W 094°02'0 0.0
2018-Feb-18 06:29N 30°02' W 094°02'0 0.0
2018-Feb-18 05:59N 30°02' W 094°02'0 0.0
2018-Feb-18 05:29N 30°02' W 094°02'0 0.0
2018-Feb-18 04:59N 30°02' W 094°02'0 0.0
2018-Feb-18 04:29N 30°02' W 094°02'0 0.0
2018-Feb-18 03:59N 30°02' W 094°02'0 0.0
2018-Feb-18 03:29N 30°02' W 094°02'0 0.0
2018-Feb-18 02:59N 30°02' W 094°02'0 0.0
2018-Feb-18 02:29N 30°02' W 094°02'0 0.0
2018-Feb-18 01:59N 30°02' W 094°02'0 0.0
2018-Feb-18 01:29N 30°02' W 094°02'0 0.0
2018-Feb-18 00:59N 30°02' W 094°02'0 0.0
2018-Feb-18 00:29N 30°02' W 094°02'0 0.0
2018-Feb-17 23:59N 30°02' W 094°02'0 0.0
2018-Feb-17 23:29N 30°02' W 094°02'0 0.0
2018-Feb-17 22:59N 30°02' W 094°02'0 0.0
2018-Feb-17 22:29N 30°02' W 094°02'0 0.0
2018-Feb-17 21:59N 30°02' W 094°02'0 0.0
2018-Feb-17 21:29N 30°02' W 094°02'0 0.0
2018-Feb-17 20:59N 30°02' W 094°02'0 0.0
2018-Feb-17 20:29N 30°02' W 094°02'0 0.0
2018-Feb-17 19:59N 30°02' W 094°02'0 0.0
2018-Feb-17 19:29N 30°02' W 094°02'0 0.0
2018-Feb-17 19:00N 30°02' W 094°02'0 0.0
2018-Feb-17 18:30N 30°02' W 094°02'0 0.0
2018-Feb-17 18:00N 30°02' W 094°02'0 0.0
2018-Feb-17 17:30N 30°02' W 094°02'0 0.0
2018-Feb-17 17:00N 30°02' W 094°02'0 0.0
2018-Feb-17 16:30N 30°02' W 094°02'0 0.0
2018-Feb-17 16:00N 30°02' W 094°02'0 0.0
2018-Feb-17 15:30N 30°02' W 094°02'0 0.0
2018-Feb-17 15:00N 30°02' W 094°02'0 0.0
2018-Feb-17 14:30N 30°02' W 094°02'0 0.0
2018-Feb-17 14:00N 30°02' W 094°02'0 0.0
2018-Feb-17 13:30N 30°02' W 094°02'0 0.0
2018-Feb-17 13:00N 30°02' W 094°02'0 0.0
2018-Feb-17 12:30N 30°02' W 094°02'0 0.0
2018-Feb-17 12:00N 30°02' W 094°02'0 0.0
2018-Feb-17 11:30N 30°02' W 094°02'0 0.0
2018-Feb-17 11:00N 30°02' W 094°02'0 0.0
2018-Feb-17 10:30N 30°02' W 094°02'0 0.0
2018-Feb-17 10:00N 30°02' W 094°02'0 0.0
2018-Feb-17 09:30N 30°02' W 094°02'0 0.0
2018-Feb-17 09:00N 30°02' W 094°02'0 0.0
2018-Feb-17 08:30N 30°02' W 094°02'0 0.0
2018-Feb-17 08:00N 30°02' W 094°02'0 0.0
2018-Feb-17 07:30N 30°02' W 094°02'0 0.0
2018-Feb-17 07:00N 30°02' W 094°02'0 0.0
2018-Feb-17 06:27N 30°02' W 094°02'0 0.0
2018-Feb-17 06:00N 30°02' W 094°02'0 0.0
2018-Feb-17 05:30N 30°02' W 094°02'0 0.0
2018-Feb-17 05:00N 30°02' W 094°02'0 0.0
2018-Feb-17 04:30N 30°02' W 094°02'0 0.0
2018-Feb-17 04:00N 30°02' W 094°02'0 0.0
2018-Feb-17 03:30N 30°02' W 094°02'0 0.0
2018-Feb-17 03:00N 30°02' W 094°02'0 0.0
2018-Feb-17 02:30N 30°02' W 094°02'0 0.0
2018-Feb-17 02:00N 30°02' W 094°02'0 0.0
2018-Feb-17 01:30N 30°02' W 094°02'0 0.0
2018-Feb-17 01:00N 30°02' W 094°02'0 0.0
2018-Feb-17 00:30N 30°02' W 094°02'0 0.0
2018-Feb-17 00:00N 30°02' W 094°02'0 0.0
2018-Feb-16 23:30N 30°02' W 094°02'0 0.0
2018-Feb-16 23:00N 30°02' W 094°02'0 0.0
2018-Feb-16 22:30N 30°02' W 094°02'0 0.0
2018-Feb-16 22:00N 30°02' W 094°02'0 0.0
2018-Feb-16 21:27N 30°02' W 094°02'0 0.0
2018-Feb-16 20:54N 30°02' W 094°02'0 0.0
2018-Feb-16 20:30N 30°02' W 094°02'0 0.5
2018-Feb-16 20:00N 30°03' W 094°02'1 3.0
2018-Feb-16 19:31N 30°04' W 094°03'2 3.1
2018-Feb-16 18:58N 30°02' W 094°02'1 1.1
2018-Feb-16 18:30N 30°03' W 094°02'1 2.6
2018-Feb-16 17:57N 30°04' W 094°03'1 3.4
2018-Feb-16 17:30N 30°03' W 094°02'1 2.9
2018-Feb-16 17:00N 30°04' W 094°03'2 3.2
2018-Feb-16 16:29N 30°02' W 094°02'0 0.0
2018-Feb-16 15:59N 30°02' W 094°02'0 0.0
2018-Feb-16 15:29N 30°02' W 094°02'0 0.0
2018-Feb-16 14:59N 30°02' W 094°02'0 0.0
2018-Feb-16 14:29N 30°02' W 094°02'0 0.0
2018-Feb-16 13:59N 30°02' W 094°02'0 0.0
2018-Feb-16 13:29N 30°02' W 094°02'0 0.0
2018-Feb-16 12:59N 30°02' W 094°02'0 0.0
2018-Feb-16 12:29N 30°02' W 094°02'0 0.0
2018-Feb-16 11:59N 30°02' W 094°02'0 0.0
2018-Feb-16 11:29N 30°02' W 094°02'0 0.0
2018-Feb-16 10:59N 30°02' W 094°02'0 0.0
2018-Feb-16 10:29N 30°02' W 094°02'0 0.0
2018-Feb-16 09:59N 30°02' W 094°02'0 0.0
2018-Feb-16 09:29N 30°02' W 094°02'0 0.0
2018-Feb-16 08:56N 30°02' W 094°02'0 0.0
2018-Feb-16 08:29N 30°02' W 094°02'0 0.0
2018-Feb-16 07:59N 30°02' W 094°02'0 0.0
2018-Feb-16 07:29N 30°02' W 094°02'0 0.0
2018-Feb-16 06:59N 30°02' W 094°02'0 0.0
2018-Feb-16 06:29N 30°02' W 094°02'0 0.0
2018-Feb-16 05:59N 30°02' W 094°02'0 0.0
2018-Feb-16 05:26N 30°02' W 094°02'0 0.0
2018-Feb-16 04:59N 30°02' W 094°02'0 0.0
2018-Feb-16 04:29N 30°02' W 094°02'0 0.0
2018-Feb-16 03:59N 30°02' W 094°02'0 0.0
2018-Feb-16 03:29N 30°02' W 094°02'0 0.0
2018-Feb-16 02:59N 30°02' W 094°02'0 0.0
2018-Feb-16 02:29N 30°02' W 094°02'0 0.0
2018-Feb-16 01:59N 30°02' W 094°02'0 0.0
2018-Feb-16 01:26N 30°02' W 094°02'0 0.0
2018-Feb-16 00:59N 30°02' W 094°02'0 0.0
2018-Feb-16 00:29N 30°02' W 094°02'0 0.0
2018-Feb-15 23:59N 30°02' W 094°02'0 0.0
2018-Feb-15 23:29N 30°02' W 094°02'0 0.0
2018-Feb-15 22:59N 30°02' W 094°02'0 0.0
2018-Feb-15 22:29N 30°02' W 094°02'0 0.0
2018-Feb-15 21:59N 30°02' W 094°02'0 0.0
2018-Feb-15 21:29N 30°02' W 094°02'0 0.0
2018-Feb-15 20:59N 30°02' W 094°02'0 0.0
2018-Feb-15 20:29N 30°02' W 094°02'0 0.0
2018-Feb-15 19:59N 30°02' W 094°02'0 0.0
2018-Feb-15 19:29N 30°02' W 094°02'0 0.0
2018-Feb-15 18:59N 30°02' W 094°02'0 0.1
2018-Feb-15 18:30N 30°02' W 094°02'2 3.5
2018-Feb-15 18:00N 30°04' W 094°03'2 3.0
2018-Feb-15 17:30N 30°03' W 094°02'1 1.1
2018-Feb-15 16:58N 30°03' W 094°02'1 2.2
2018-Feb-15 16:30N 30°03' W 094°02'1 2.1
2018-Feb-15 15:59N 30°04' W 094°03'1 2.0
2018-Feb-15 15:30N 30°04' W 094°02'1 2.0
2018-Feb-15 14:58N 30°03' W 094°02'0 0.0
2018-Feb-15 14:28N 30°03' W 094°02'0 0.0
2018-Feb-15 13:58N 30°03' W 094°02'0 0.0
2018-Feb-15 13:28N 30°03' W 094°02'0 0.0
2018-Feb-15 12:58N 30°03' W 094°02'0 0.0
2018-Feb-15 12:28N 30°03' W 094°02'0 0.0
2018-Feb-15 11:58N 30°03' W 094°02'0 0.0
2018-Feb-15 11:28N 30°03' W 094°02'0 0.0
2018-Feb-15 10:58N 30°03' W 094°02'0 0.0
2018-Feb-15 10:28N 30°03' W 094°02'0 0.0
2018-Feb-15 09:58N 30°03' W 094°02'0 0.0
2018-Feb-15 09:25N 30°03' W 094°02'0 0.0
2018-Feb-15 08:58N 30°03' W 094°02'0 0.0
2018-Feb-15 08:28N 30°03' W 094°02'0 0.0
2018-Feb-15 07:58N 30°03' W 094°02'0 0.0
2018-Feb-15 07:22N 30°03' W 094°02'0 0.0
2018-Feb-15 06:55N 30°03' W 094°02'0 0.0
2018-Feb-15 06:25N 30°03' W 094°02'0 0.0
2018-Feb-15 05:55N 30°03' W 094°02'0 0.0
2018-Feb-15 05:28N 30°03' W 094°02'0 0.0
2018-Feb-15 04:58N 30°03' W 094°02'0 0.0
2018-Feb-15 04:28N 30°03' W 094°02'0 0.0
2018-Feb-15 03:58N 30°03' W 094°02'0 0.0
2018-Feb-15 03:28N 30°03' W 094°02'0 0.0
2018-Feb-15 02:58N 30°03' W 094°02'0 0.0
2018-Feb-15 02:28N 30°03' W 094°02'0 0.0
2018-Feb-15 01:58N 30°03' W 094°02'0 0.0
2018-Feb-15 01:28N 30°03' W 094°02'0 0.0
2018-Feb-15 00:58N 30°03' W 094°02'0 0.0
2018-Feb-15 00:28N 30°03' W 094°02'0 0.0
2018-Feb-14 23:55N 30°03' W 094°02'0 0.0
2018-Feb-14 23:28N 30°03' W 094°02'0 0.0
2018-Feb-14 22:58N 30°03' W 094°02'0 0.0
2018-Feb-14 22:28N 30°03' W 094°02'0 0.0
2018-Feb-14 21:58N 30°03' W 094°02'0 0.0
2018-Feb-14 21:28N 30°03' W 094°02'0 0.0
2018-Feb-14 20:58N 30°03' W 094°02'0 0.0
2018-Feb-14 20:28N 30°02' W 094°02'0 0.0
2018-Feb-14 19:58N 30°03' W 094°02'0 0.0
2018-Feb-14 19:28N 30°03' W 094°02'0 0.0
2018-Feb-14 18:58N 30°03' W 094°02'0 0.1
2018-Feb-14 18:28N 30°02' W 094°02'0 0.1
2018-Feb-14 17:58N 30°03' W 094°02'0 0.0
2018-Feb-14 17:28N 30°03' W 094°02'0 0.0
2018-Feb-14 16:58N 30°03' W 094°02'0 0.0
2018-Feb-14 16:28N 30°03' W 094°02'0 0.0
2018-Feb-14 15:58N 30°03' W 094°02'0 0.0
2018-Feb-14 15:25N 30°02' W 094°02'0 0.0
2018-Feb-14 14:58N 30°02' W 094°02'0 0.0
2018-Feb-14 14:25N 30°03' W 094°02'0 0.0
2018-Feb-14 13:58N 30°02' W 094°02'0 0.0
2018-Feb-14 13:28N 30°03' W 094°02'0 0.0
2018-Feb-14 12:58N 30°03' W 094°02'0 0.0
2018-Feb-14 12:28N 30°02' W 094°02'0 0.0
2018-Feb-14 11:58N 30°03' W 094°02'0 0.0
2018-Feb-14 11:22N 30°03' W 094°02'0 0.0
2018-Feb-14 10:58N 30°03' W 094°02'0 0.0
2018-Feb-14 10:28N 30°02' W 094°02'0 0.0
2018-Feb-14 09:52N 30°02' W 094°02'0 0.1
2018-Feb-14 09:30N 30°03' W 094°02'0 0.3
2018-Feb-14 09:00N 30°02' W 094°02'0 0.4
2018-Feb-14 08:31N 30°02' W 094°02'2 3.3
2018-Feb-14 08:01N 30°01' W 094°01'3 5.2
2018-Feb-14 07:30N 30°01' W 093°58'2 3.3
2018-Feb-14 07:00N 29°60' W 093°56'3 6.3
2018-Feb-14 06:29N 29°59' W 093°53'2 4.0
2018-Feb-14 06:00N 29°57' W 093°52'3 5.6
2018-Feb-14 05:30N 29°55' W 093°53'3 6.1
2018-Feb-14 05:00N 29°53' W 093°56'3 5.8
2018-Feb-14 04:30N 29°50' W 093°57'2 4.5
2018-Feb-14 04:00N 29°49' W 093°59'2 4.8
2018-Feb-14 03:30N 29°47' W 094°01'2 4.8
2018-Feb-14 03:00N 29°46' W 094°03'2 4.6
2018-Feb-14 02:30N 29°44' W 094°06'2 4.3
2018-Feb-14 02:00N 29°43' W 094°07'2 4.4
2018-Feb-14 01:30N 29°41' W 094°09'2 4.3
2018-Feb-14 01:00N 29°41' W 094°12'2 4.6
2018-Feb-14 00:31N 29°40' W 094°14'2 4.6
2018-Feb-14 00:00N 29°39' W 094°17'2 4.8
2018-Feb-13 23:30N 29°38' W 094°19'2 4.9
2018-Feb-13 23:00N 29°37' W 094°22'2 4.2
2018-Feb-13 22:27N 29°36' W 094°24'2 4.1
2018-Feb-13 21:59N 29°34' W 094°25'  
Track history (hours):
 
Tides and Currents Weather Stations Pressure Air Temp Water Temp Dewpoint Dewpoint Depression Visibility Wind Speed Wind Dir Waves Ship Positions

Ursula

Owner: Enterprise Marine Services, LLC, San Antonio, TX. More information available from US FCC via Universal Licensing System and Coast Guard Vessel Documentation Center.

Last reported at 2018-Feb-23 04:53 UTC. Time now 2018-Feb-23 20:20 UTC.
Position N 29°22' W 094°54'.

Length 22 m; draft 2.7 m.

Type: Tug. MMSI: 367004050.

Date/timePositionNaut miles runAvg speedWind from/ knotsBaromVisibWave heightAir tempDewpointWater temp
2018-Feb-23 04:53N 29°22' W 094°54'  
2018-Feb-20 22:36N 29°32' W 094°29'0 0.0
2018-Feb-20 21:42N 29°32' W 094°29'5 1.0
2018-Feb-20 16:30N 29°36' W 094°24'3 6.0
2018-Feb-20 16:00N 29°37' W 094°21'0 0.4
2018-Feb-20 15:30N 29°37' W 094°21'0 0.0
2018-Feb-20 14:57N 29°37' W 094°21'0 0.0
2018-Feb-20 14:29N 29°37' W 094°21'0 0.0
2018-Feb-20 14:00N 29°37' W 094°21'0 0.0
2018-Feb-20 13:30N 29°37' W 094°21'0 0.0
2018-Feb-20 13:00N 29°37' W 094°21'0 0.0
2018-Feb-20 12:30N 29°37' W 094°21'0 0.0
2018-Feb-20 12:00N 29°37' W 094°21'0 0.0
2018-Feb-20 11:30N 29°37' W 094°21'0 0.0
2018-Feb-20 11:00N 29°37' W 094°21'0 0.0
2018-Feb-20 10:27N 29°37' W 094°21'0 0.0
2018-Feb-20 10:00N 29°37' W 094°21'0 0.0
2018-Feb-20 09:29N 29°37' W 094°21'0 0.0
2018-Feb-20 09:00N 29°37' W 094°21'0 0.0
2018-Feb-20 08:30N 29°37' W 094°21'0 0.0
2018-Feb-20 08:00N 29°37' W 094°21'0 0.0
2018-Feb-20 07:24N 29°37' W 094°21'0 0.0
2018-Feb-20 06:53N 29°37' W 094°21'0 0.0
2018-Feb-20 06:30N 29°37' W 094°21'0 0.0
2018-Feb-20 05:58N 29°37' W 094°21'0 0.0
2018-Feb-20 05:30N 29°37' W 094°21'0 0.0
2018-Feb-20 05:00N 29°37' W 094°21'0 0.0
2018-Feb-20 04:25N 29°37' W 094°21'0 0.0
2018-Feb-20 03:58N 29°37' W 094°21'0 0.0
2018-Feb-20 03:30N 29°37' W 094°21'0 0.0
2018-Feb-20 03:00N 29°37' W 094°21'1 1.2
2018-Feb-20 02:28N 29°37' W 094°20'0 0.2
2018-Feb-20 02:00N 29°37' W 094°20'0 0.0
2018-Feb-20 01:30N 29°37' W 094°20'1 2.5
2018-Feb-20 01:00N 29°38' W 094°19'0 0.2
2018-Feb-20 00:30N 29°38' W 094°19'2 3.9
2018-Feb-20 00:00N 29°39' W 094°17'4 7.2
2018-Feb-19 23:30N 29°40' W 094°13'2 4.3
2018-Feb-19 23:00N 29°41' W 094°11'0 0.4
2018-Feb-19 22:30N 29°41' W 094°10'3 6.1
2018-Feb-19 22:00N 29°43' W 094°07'0 0.0
2018-Feb-19 21:30N 29°43' W 094°07'0 0.0
2018-Feb-19 21:00N 29°43' W 094°07'0 0.0
2018-Feb-19 20:29N 29°43' W 094°07'2 3.1
2018-Feb-19 20:00N 29°44' W 094°06'3 6.3
2018-Feb-19 19:30N 29°46' W 094°03'1 2.8
2018-Feb-19 19:00N 29°47' W 094°02'0 0.0
2018-Feb-19 18:30N 29°47' W 094°02'1 2.5
2018-Feb-19 18:00N 29°47' W 094°01'0 0.1
2018-Feb-19 17:30N 29°47' W 094°01'2 3.8
2018-Feb-19 17:00N 29°49' W 093°59'3 5.1
2018-Feb-19 16:30N 29°51' W 093°57'4 7.1
2018-Feb-19 16:00N 29°53' W 093°55'4 7.6
2018-Feb-19 15:30N 29°56' W 093°52'3 5.2
2018-Feb-19 15:00N 29°59' W 093°53'3 6.7
2018-Feb-19 14:30N 29°60' W 093°56'2 4.2
2018-Feb-19 14:00N 30°01' W 093°59'0 0.1
2018-Feb-19 13:30N 30°01' W 093°59'0 0.0
2018-Feb-19 13:00N 30°01' W 093°59'0 0.0
2018-Feb-19 12:26N 30°01' W 093°59'0 0.0
2018-Feb-19 11:59N 30°01' W 093°59'0 0.0
2018-Feb-19 11:29N 30°01' W 093°59'0 0.0
2018-Feb-19 10:59N 30°01' W 093°59'0 0.0
2018-Feb-19 10:29N 30°01' W 093°59'0 0.0
2018-Feb-19 09:59N 30°01' W 093°59'0 0.0
2018-Feb-19 09:26N 30°01' W 093°59'0 0.0
2018-Feb-19 08:53N 30°01' W 093°59'0 0.0
2018-Feb-19 08:23N 30°01' W 093°59'0 0.0
2018-Feb-19 07:59N 30°01' W 093°59'0 0.0
2018-Feb-19 07:23N 30°01' W 093°59'0 0.0
2018-Feb-19 06:59N 30°01' W 093°59'0 0.0
2018-Feb-19 06:26N 30°01' W 093°59'0 0.0
2018-Feb-19 05:59N 30°01' W 093°59'0 0.0
2018-Feb-19 05:29N 30°01' W 093°59'0 0.0
2018-Feb-19 04:59N 30°01' W 093°59'0 0.0
2018-Feb-19 04:29N 30°01' W 093°59'0 0.0
2018-Feb-19 03:53N 30°01' W 093°59'0 0.0
2018-Feb-19 03:29N 30°01' W 093°59'0 0.0
2018-Feb-19 02:59N 30°01' W 093°59'0 0.0
2018-Feb-19 02:29N 30°01' W 093°59'0 0.0
2018-Feb-19 01:56N 30°01' W 093°59'0 0.0
2018-Feb-19 01:29N 30°01' W 093°59'0 0.0
2018-Feb-19 00:59N 30°01' W 093°59'0 0.0
2018-Feb-19 00:29N 30°01' W 093°59'0 0.0
2018-Feb-18 23:59N 30°01' W 093°59'0 0.1
2018-Feb-18 23:30N 30°01' W 093°58'1 1.5
2018-Feb-18 23:00N 30°01' W 093°59'2 4.4
2018-Feb-18 22:30N 30°01' W 094°02'1 2.2
2018-Feb-18 22:00N 30°02' W 094°02'0 0.1
2018-Feb-18 21:29N 30°02' W 094°02'0 0.0
2018-Feb-18 20:59N 30°02' W 094°02'0 0.0
2018-Feb-18 20:26N 30°02' W 094°02'0 0.0
2018-Feb-18 19:59N 30°02' W 094°02'0 0.0
2018-Feb-18 19:29N 30°02' W 094°02'0 0.0
2018-Feb-18 18:59N 30°02' W 094°02'0 0.0
2018-Feb-18 18:29N 30°02' W 094°02'0 0.0
2018-Feb-18 17:59N 30°02' W 094°02'0 0.0
2018-Feb-18 17:29N 30°02' W 094°02'0 0.0
2018-Feb-18 16:59N 30°02' W 094°02'0 0.0
2018-Feb-18 16:29N 30°02' W 094°02'0 0.0
2018-Feb-18 15:59N 30°02' W 094°02'0 0.0
2018-Feb-18 15:29N 30°02' W 094°02'0 0.0
2018-Feb-18 14:59N 30°02' W 094°02'0 0.0
2018-Feb-18 14:29N 30°02' W 094°02'0 0.0
2018-Feb-18 13:59N 30°02' W 094°02'0 0.0
2018-Feb-18 13:29N 30°02' W 094°02'0 0.0
2018-Feb-18 12:59N 30°02' W 094°02'0 0.0
2018-Feb-18 12:29N 30°02' W 094°02'0 0.0
2018-Feb-18 11:59N 30°02' W 094°02'0 0.0
2018-Feb-18 11:29N 30°02' W 094°02'0 0.0
2018-Feb-18 10:59N 30°02' W 094°02'0 0.0
2018-Feb-18 10:29N 30°02' W 094°02'0 0.0
2018-Feb-18 09:59N 30°02' W 094°02'0 0.0
2018-Feb-18 09:29N 30°02' W 094°02'0 0.0
2018-Feb-18 08:59N 30°02' W 094°02'0 0.0
2018-Feb-18 08:29N 30°02' W 094°02'0 0.0
2018-Feb-18 07:59N 30°02' W 094°02'0 0.0
2018-Feb-18 07:29N 30°02' W 094°02'0 0.0
2018-Feb-18 06:59N 30°02' W 094°02'0 0.0
2018-Feb-18 06:29N 30°02' W 094°02'0 0.0
2018-Feb-18 05:59N 30°02' W 094°02'0 0.0
2018-Feb-18 05:29N 30°02' W 094°02'0 0.0
2018-Feb-18 04:59N 30°02' W 094°02'0 0.0
2018-Feb-18 04:29N 30°02' W 094°02'0 0.0
2018-Feb-18 03:59N 30°02' W 094°02'0 0.0
2018-Feb-18 03:29N 30°02' W 094°02'0 0.0
2018-Feb-18 02:59N 30°02' W 094°02'0 0.0
2018-Feb-18 02:29N 30°02' W 094°02'0 0.0
2018-Feb-18 01:59N 30°02' W 094°02'0 0.0
2018-Feb-18 01:29N 30°02' W 094°02'0 0.0
2018-Feb-18 00:59N 30°02' W 094°02'0 0.0
2018-Feb-18 00:29N 30°02' W 094°02'0 0.0
2018-Feb-17 23:59N 30°02' W 094°02'0 0.0
2018-Feb-17 23:29N 30°02' W 094°02'0 0.0
2018-Feb-17 22:59N 30°02' W 094°02'0 0.0
2018-Feb-17 22:29N 30°02' W 094°02'0 0.0
2018-Feb-17 21:59N 30°02' W 094°02'0 0.0
2018-Feb-17 21:29N 30°02' W 094°02'0 0.0
2018-Feb-17 20:59N 30°02' W 094°02'0 0.0
2018-Feb-17 20:29N 30°02' W 094°02'0 0.0
2018-Feb-17 19:59N 30°02' W 094°02'0 0.0
2018-Feb-17 19:29N 30°02' W 094°02'0 0.0
2018-Feb-17 19:00N 30°02' W 094°02'0 0.0
2018-Feb-17 18:30N 30°02' W 094°02'0 0.0
2018-Feb-17 18:00N 30°02' W 094°02'0 0.0
2018-Feb-17 17:30N 30°02' W 094°02'0 0.0
2018-Feb-17 17:00N 30°02' W 094°02'0 0.0
2018-Feb-17 16:30N 30°02' W 094°02'0 0.0
2018-Feb-17 16:00N 30°02' W 094°02'0 0.0
2018-Feb-17 15:30N 30°02' W 094°02'0 0.0
2018-Feb-17 15:00N 30°02' W 094°02'0 0.0
2018-Feb-17 14:30N 30°02' W 094°02'0 0.0
2018-Feb-17 14:00N 30°02' W 094°02'0 0.0
2018-Feb-17 13:30N 30°02' W 094°02'0 0.0
2018-Feb-17 13:00N 30°02' W 094°02'0 0.0
2018-Feb-17 12:30N 30°02' W 094°02'0 0.0
2018-Feb-17 12:00N 30°02' W 094°02'0 0.0
2018-Feb-17 11:30N 30°02' W 094°02'0 0.0
2018-Feb-17 11:00N 30°02' W 094°02'0 0.0
2018-Feb-17 10:30N 30°02' W 094°02'0 0.0
2018-Feb-17 10:00N 30°02' W 094°02'0 0.0
2018-Feb-17 09:30N 30°02' W 094°02'0 0.0
2018-Feb-17 09:00N 30°02' W 094°02'0 0.0
2018-Feb-17 08:30N 30°02' W 094°02'0 0.0
2018-Feb-17 08:00N 30°02' W 094°02'0 0.0
2018-Feb-17 07:30N 30°02' W 094°02'0 0.0
2018-Feb-17 07:00N 30°02' W 094°02'0 0.0
2018-Feb-17 06:27N 30°02' W 094°02'0 0.0
2018-Feb-17 06:00N 30°02' W 094°02'0 0.0
2018-Feb-17 05:30N 30°02' W 094°02'0 0.0
2018-Feb-17 05:00N 30°02' W 094°02'0 0.0
2018-Feb-17 04:30N 30°02' W 094°02'0 0.0
2018-Feb-17 04:00N 30°02' W 094°02'0 0.0
2018-Feb-17 03:30N 30°02' W 094°02'0 0.0
2018-Feb-17 03:00N 30°02' W 094°02'0 0.0
2018-Feb-17 02:30N 30°02' W 094°02'0 0.0
2018-Feb-17 02:00N 30°02' W 094°02'0 0.0
2018-Feb-17 01:30N 30°02' W 094°02'0 0.0
2018-Feb-17 01:00N 30°02' W 094°02'0 0.0
2018-Feb-17 00:30N 30°02' W 094°02'0 0.0
2018-Feb-17 00:00N 30°02' W 094°02'0 0.0
2018-Feb-16 23:30N 30°02' W 094°02'0 0.0
2018-Feb-16 23:00N 30°02' W 094°02'0 0.0
2018-Feb-16 22:30N 30°02' W 094°02'0 0.0
2018-Feb-16 22:00N 30°02' W 094°02'0 0.0
2018-Feb-16 21:27N 30°02' W 094°02'0 0.0
2018-Feb-16 20:54N 30°02' W 094°02'0 0.0
2018-Feb-16 20:30N 30°02' W 094°02'0 0.5
2018-Feb-16 20:00N 30°03' W 094°02'1 3.0
2018-Feb-16 19:31N 30°04' W 094°03'2 3.1
2018-Feb-16 18:58N 30°02' W 094°02'1 1.1
2018-Feb-16 18:30N 30°03' W 094°02'1 2.6
2018-Feb-16 17:57N 30°04' W 094°03'1 3.4
2018-Feb-16 17:30N 30°03' W 094°02'1 2.9
2018-Feb-16 17:00N 30°04' W 094°03'2 3.2
2018-Feb-16 16:29N 30°02' W 094°02'0 0.0
2018-Feb-16 15:59N 30°02' W 094°02'0 0.0
2018-Feb-16 15:29N 30°02' W 094°02'0 0.0
2018-Feb-16 14:59N 30°02' W 094°02'0 0.0
2018-Feb-16 14:29N 30°02' W 094°02'0 0.0
2018-Feb-16 13:59N 30°02' W 094°02'0 0.0
2018-Feb-16 13:29N 30°02' W 094°02'0 0.0
2018-Feb-16 12:59N 30°02' W 094°02'0 0.0
2018-Feb-16 12:29N 30°02' W 094°02'0 0.0
2018-Feb-16 11:59N 30°02' W 094°02'0 0.0
2018-Feb-16 11:29N 30°02' W 094°02'0 0.0
2018-Feb-16 10:59N 30°02' W 094°02'0 0.0
2018-Feb-16 10:29N 30°02' W 094°02'0 0.0
2018-Feb-16 09:59N 30°02' W 094°02'0 0.0
2018-Feb-16 09:29N 30°02' W 094°02'0 0.0
2018-Feb-16 08:56N 30°02' W 094°02'0 0.0
2018-Feb-16 08:29N 30°02' W 094°02'0 0.0
2018-Feb-16 07:59N 30°02' W 094°02'0 0.0
2018-Feb-16 07:29N 30°02' W 094°02'0 0.0
2018-Feb-16 06:59N 30°02' W 094°02'0 0.0
2018-Feb-16 06:29N 30°02' W 094°02'0 0.0
2018-Feb-16 05:59N 30°02' W 094°02'0 0.0
2018-Feb-16 05:26N 30°02' W 094°02'0 0.0
2018-Feb-16 04:59N 30°02' W 094°02'0 0.0
2018-Feb-16 04:29N 30°02' W 094°02'0 0.0
2018-Feb-16 03:59N 30°02' W 094°02'0 0.0
2018-Feb-16 03:29N 30°02' W 094°02'0 0.0
2018-Feb-16 02:59N 30°02' W 094°02'0 0.0
2018-Feb-16 02:29N 30°02' W 094°02'0 0.0
2018-Feb-16 01:59N 30°02' W 094°02'0 0.0
2018-Feb-16 01:26N 30°02' W 094°02'0 0.0
2018-Feb-16 00:59N 30°02' W 094°02'0 0.0
2018-Feb-16 00:29N 30°02' W 094°02'0 0.0
2018-Feb-15 23:59N 30°02' W 094°02'0 0.0
2018-Feb-15 23:29N 30°02' W 094°02'0 0.0
2018-Feb-15 22:59N 30°02' W 094°02'0 0.0
2018-Feb-15 22:29N 30°02' W 094°02'0 0.0
2018-Feb-15 21:59N 30°02' W 094°02'0 0.0
2018-Feb-15 21:29N 30°02' W 094°02'0 0.0
2018-Feb-15 20:59N 30°02' W 094°02'0 0.0
2018-Feb-15 20:29N 30°02' W 094°02'0 0.0
2018-Feb-15 19:59N 30°02' W 094°02'0 0.0
2018-Feb-15 19:29N 30°02' W 094°02'0 0.0
2018-Feb-15 18:59N 30°02' W 094°02'0 0.1
2018-Feb-15 18:30N 30°02' W 094°02'2 3.5
2018-Feb-15 18:00N 30°04' W 094°03'2 3.0
2018-Feb-15 17:30N 30°03' W 094°02'1 1.1
2018-Feb-15 16:58N 30°03' W 094°02'1 2.2
2018-Feb-15 16:30N 30°03' W 094°02'1 2.1
2018-Feb-15 15:59N 30°04' W 094°03'1 2.0
2018-Feb-15 15:30N 30°04' W 094°02'1 2.0
2018-Feb-15 14:58N 30°03' W 094°02'0 0.0
2018-Feb-15 14:28N 30°03' W 094°02'0 0.0
2018-Feb-15 13:58N 30°03' W 094°02'0 0.0
2018-Feb-15 13:28N 30°03' W 094°02'0 0.0
2018-Feb-15 12:58N 30°03' W 094°02'0 0.0
2018-Feb-15 12:28N 30°03' W 094°02'0 0.0
2018-Feb-15 11:58N 30°03' W 094°02'0 0.0
2018-Feb-15 11:28N 30°03' W 094°02'0 0.0
2018-Feb-15 10:58N 30°03' W 094°02'0 0.0
2018-Feb-15 10:28N 30°03' W 094°02'0 0.0
2018-Feb-15 09:58N 30°03' W 094°02'0 0.0
2018-Feb-15 09:25N 30°03' W 094°02'0 0.0
2018-Feb-15 08:58N 30°03' W 094°02'0 0.0
2018-Feb-15 08:28N 30°03' W 094°02'0 0.0
2018-Feb-15 07:58N 30°03' W 094°02'0 0.0
2018-Feb-15 07:22N 30°03' W 094°02'0 0.0
2018-Feb-15 06:55N 30°03' W 094°02'0 0.0
2018-Feb-15 06:25N 30°03' W 094°02'0 0.0
2018-Feb-15 05:55N 30°03' W 094°02'0 0.0
2018-Feb-15 05:28N 30°03' W 094°02'0 0.0
2018-Feb-15 04:58N 30°03' W 094°02'0 0.0
2018-Feb-15 04:28N 30°03' W 094°02'0 0.0
2018-Feb-15 03:58N 30°03' W 094°02'0 0.0
2018-Feb-15 03:28N 30°03' W 094°02'0 0.0
2018-Feb-15 02:58N 30°03' W 094°02'0 0.0
2018-Feb-15 02:28N 30°03' W 094°02'0 0.0
2018-Feb-15 01:58N 30°03' W 094°02'0 0.0
2018-Feb-15 01:28N 30°03' W 094°02'0 0.0
2018-Feb-15 00:58N 30°03' W 094°02'0 0.0
2018-Feb-15 00:28N 30°03' W 094°02'0 0.0
2018-Feb-14 23:55N 30°03' W 094°02'0 0.0
2018-Feb-14 23:28N 30°03' W 094°02'0 0.0
2018-Feb-14 22:58N 30°03' W 094°02'0 0.0
2018-Feb-14 22:28N 30°03' W 094°02'0 0.0
2018-Feb-14 21:58N 30°03' W 094°02'0 0.0
2018-Feb-14 21:28N 30°03' W 094°02'0 0.0
2018-Feb-14 20:58N 30°03' W 094°02'0 0.0
2018-Feb-14 20:28N 30°02' W 094°02'0 0.0
2018-Feb-14 19:58N 30°03' W 094°02'0 0.0
2018-Feb-14 19:28N 30°03' W 094°02'0 0.0
2018-Feb-14 18:58N 30°03' W 094°02'0 0.1
2018-Feb-14 18:28N 30°02' W 094°02'0 0.1
2018-Feb-14 17:58N 30°03' W 094°02'0 0.0
2018-Feb-14 17:28N 30°03' W 094°02'0 0.0
2018-Feb-14 16:58N 30°03' W 094°02'0 0.0
2018-Feb-14 16:28N 30°03' W 094°02'0 0.0
2018-Feb-14 15:58N 30°03' W 094°02'0 0.0
2018-Feb-14 15:25N 30°02' W 094°02'0 0.0
2018-Feb-14 14:58N 30°02' W 094°02'0 0.0
2018-Feb-14 14:25N 30°03' W 094°02'0 0.0
2018-Feb-14 13:58N 30°02' W 094°02'0 0.0
2018-Feb-14 13:28N 30°03' W 094°02'0 0.0
2018-Feb-14 12:58N 30°03' W 094°02'0 0.0
2018-Feb-14 12:28N 30°02' W 094°02'0 0.0
2018-Feb-14 11:58N 30°03' W 094°02'0 0.0
2018-Feb-14 11:22N 30°03' W 094°02'0 0.0
2018-Feb-14 10:58N 30°03' W 094°02'0 0.0
2018-Feb-14 10:28N 30°02' W 094°02'0 0.0
2018-Feb-14 09:52N 30°02' W 094°02'0 0.1
2018-Feb-14 09:30N 30°03' W 094°02'0 0.3
2018-Feb-14 09:00N 30°02' W 094°02'0 0.4
2018-Feb-14 08:31N 30°02' W 094°02'2 3.3
2018-Feb-14 08:01N 30°01' W 094°01'3 5.2
2018-Feb-14 07:30N 30°01' W 093°58'2 3.3
2018-Feb-14 07:00N 29°60' W 093°56'3 6.3
2018-Feb-14 06:29N 29°59' W 093°53'2 4.0
2018-Feb-14 06:00N 29°57' W 093°52'3 5.6
2018-Feb-14 05:30N 29°55' W 093°53'3 6.1
2018-Feb-14 05:00N 29°53' W 093°56'3 5.8
2018-Feb-14 04:30N 29°50' W 093°57'2 4.5
2018-Feb-14 04:00N 29°49' W 093°59'2 4.8
2018-Feb-14 03:30N 29°47' W 094°01'2 4.8
2018-Feb-14 03:00N 29°46' W 094°03'2 4.6
2018-Feb-14 02:30N 29°44' W 094°06'2 4.3
2018-Feb-14 02:00N 29°43' W 094°07'2 4.4
2018-Feb-14 01:30N 29°41' W 094°09'2 4.3
2018-Feb-14 01:00N 29°41' W 094°12'2 4.6
2018-Feb-14 00:31N 29°40' W 094°14'2 4.6
2018-Feb-14 00:00N 29°39' W 094°17'2 4.8
2018-Feb-13 23:30N 29°38' W 094°19'2 4.9
2018-Feb-13 23:00N 29°37' W 094°22'2 4.2
2018-Feb-13 22:27N 29°36' W 094°24'2 4.1
2018-Feb-13 21:59N 29°34' W 094°25'  

Dump ship's entire track history